EGEC/CAL METAR and TAF weather

Enter ICAO airport designator
Station Type Date Time Source
EGEC METAR 2020/08/10 16:20 UTC NOAA

EGEC 101620Z 27007KT CAVOK 17/13 Q1019


Station Type Date Time Source
EGEC Decoded METAR 2020/08/10 16:20 UTC NOAA

Campbeltown, United Kingdom (EGEC) 55-26-14N 005-41-11W
Aug 10, 2020 - 12:20 PM EDT / 2020.08.10 1620 UTC
Wind: from the W (270 degrees) at 8 MPH (7 KT):0
Visibility: greater than 7 mile(s):0
Temperature: 62 F (17 C)
Dew Point: 55 F (13 C)
Relative Humidity: 77%
Pressure (altimeter): 30.09 in. Hg (1019 hPa)
ob: EGEC 101620Z 27007KT CAVOK 17/13 Q1019
cycle: 16

Station Type Date Time Source
EGEC TAF UTC NOAA

Error!

Example: see airport list